sensor_id;sensor_type;location;lat;lon;timestamp;P1;durP1;ratioP1;P2;durP2;ratioP2
31660;SDS011;18267;52.234;7.444;2023-11-19T00:01:55;11.50;;;6.82;;
31660;SDS011;18267;52.234;7.444;2023-11-19T00:04:21;10.27;;;6.68;;
31660;SDS011;18267;52.234;7.444;2023-11-19T00:06:47;9.38;;;6.43;;
31660;SDS011;18267;52.234;7.444;2023-11-19T00:09:13;10.75;;;6.97;;
31660;SDS011;18267;52.234;7.444;2023-11-19T00:11:41;8.15;;;6.32;;
31660;SDS011;18267;52.234;7.444;2023-11-19T00:14:07;8.85;;;6.82;;
31660;SDS011;18267;52.234;7.444;2023-11-19T00:16:33;11.20;;;6.45;;
31660;SDS011;18267;52.234;7.444;2023-11-19T00:18:59;9.90;;;7.13;;
31660;SDS011;18267;52.234;7.444;2023-11-19T00:21:25;10.45;;;6.57;;
31660;SDS011;18267;52.234;7.444;2023-11-19T00:23:53;15.35;;;7.40;;
31660;SDS011;18267;52.234;7.444;2023-11-19T00:26:19;8.80;;;6.60;;
31660;SDS011;18267;52.234;7.444;2023-11-19T00:28:45;11.55;;;6.78;;
31660;SDS011;18267;52.234;7.444;2023-11-19T00:31:12;13.82;;;7.60;;
31660;SDS011;18267;52.234;7.444;2023-11-19T00:33:38;10.30;;;7.05;;
31660;SDS011;18267;52.234;7.444;2023-11-19T00:36:04;12.55;;;6.95;;
31660;SDS011;18267;52.234;7.444;2023-11-19T00:38:30;11.13;;;7.75;;
31660;SDS011;18267;52.234;7.444;2023-11-19T00:40:56;20.90;;;7.72;;
31660;SDS011;18267;52.234;7.444;2023-11-19T00:43:21;10.77;;;7.57;;
31660;SDS011;18267;52.234;7.444;2023-11-19T00:45:47;11.48;;;7.82;;
31660;SDS011;18267;52.234;7.444;2023-11-19T00:48:15;11.35;;;8.32;;
31660;SDS011;18267;52.234;7.444;2023-11-19T00:50:41;11.18;;;8.38;;
31660;SDS011;18267;52.234;7.444;2023-11-19T00:53:09;11.75;;;7.57;;
31660;SDS011;18267;52.234;7.444;2023-11-19T00:55:35;10.30;;;6.85;;
31660;SDS011;18267;52.234;7.444;2023-11-19T00:58:00;12.45;;;7.88;;
31660;SDS011;18267;52.234;7.444;2023-11-19T01:00:26;11.93;;;7.55;;
31660;SDS011;18267;52.234;7.444;2023-11-19T01:02:52;10.57;;;7.60;;
31660;SDS011;18267;52.234;7.444;2023-11-19T01:05:18;13.85;;;8.63;;
31660;SDS011;18267;52.234;7.444;2023-11-19T01:07:47;14.07;;;8.80;;
31660;SDS011;18267;52.234;7.444;2023-11-19T01:10:12;14.20;;;8.80;;
31660;SDS011;18267;52.234;7.444;2023-11-19T01:12:38;19.45;;;10.02;;
31660;SDS011;18267;52.234;7.444;2023-11-19T01:15:04;13.10;;;8.27;;
31660;SDS011;18267;52.234;7.444;2023-11-19T01:17:30;12.82;;;9.32;;
31660;SDS011;18267;52.234;7.444;2023-11-19T01:19:59;19.45;;;10.98;;
31660;SDS011;18267;52.234;7.444;2023-11-19T01:22:25;16.35;;;10.10;;
31660;SDS011;18267;52.234;7.444;2023-11-19T01:24:51;15.48;;;9.95;;
31660;SDS011;18267;52.234;7.444;2023-11-19T01:27:17;16.02;;;10.63;;
31660;SDS011;18267;52.234;7.444;2023-11-19T01:29:42;16.58;;;10.70;;
31660;SDS011;18267;52.234;7.444;2023-11-19T01:32:08;20.48;;;10.25;;
31660;SDS011;18267;52.234;7.444;2023-11-19T01:34:33;17.77;;;10.05;;
31660;SDS011;18267;52.234;7.444;2023-11-19T01:37:00;19.15;;;10.65;;
31660;SDS011;18267;52.234;7.444;2023-11-19T01:39:25;18.90;;;10.35;;
31660;SDS011;18267;52.234;7.444;2023-11-19T01:41:51;18.55;;;10.45;;
31660;SDS011;18267;52.234;7.444;2023-11-19T01:44:16;18.73;;;11.30;;
31660;SDS011;18267;52.234;7.444;2023-11-19T01:46:43;18.33;;;10.38;;
31660;SDS011;18267;52.234;7.444;2023-11-19T01:49:12;18.10;;;10.50;;
31660;SDS011;18267;52.234;7.444;2023-11-19T01:51:42;17.40;;;10.40;;
31660;SDS011;18267;52.234;7.444;2023-11-19T01:54:08;18.75;;;11.23;;
31660;SDS011;18267;52.234;7.444;2023-11-19T01:56:35;22.10;;;10.20;;
31660;SDS011;18267;52.234;7.444;2023-11-19T01:59:02;23.10;;;10.77;;
31660;SDS011;18267;52.234;7.444;2023-11-19T02:01:28;20.27;;;11.30;;
31660;SDS011;18267;52.234;7.444;2023-11-19T02:03:54;22.30;;;11.77;;
31660;SDS011;18267;52.234;7.444;2023-11-19T02:06:20;21.35;;;11.07;;
31660;SDS011;18267;52.234;7.444;2023-11-19T02:08:46;24.52;;;11.88;;
31660;SDS011;18267;52.234;7.444;2023-11-19T02:11:12;19.90;;;12.20;;
31660;SDS011;18267;52.234;7.444;2023-11-19T02:13:37;17.88;;;11.32;;
31660;SDS011;18267;52.234;7.444;2023-11-19T02:16:03;23.63;;;11.40;;
31660;SDS011;18267;52.234;7.444;2023-11-19T02:18:29;26.25;;;11.95;;
31660;SDS011;18267;52.234;7.444;2023-11-19T02:20:58;20.70;;;12.45;;
31660;SDS011;18267;52.234;7.444;2023-11-19T02:23:25;19.38;;;11.20;;
31660;SDS011;18267;52.234;7.444;2023-11-19T02:25:59;25.38;;;12.88;;
31660;SDS011;18267;52.234;7.444;2023-11-19T02:28:27;21.80;;;11.85;;
31660;SDS011;18267;52.234;7.444;2023-11-19T02:30:52;26.33;;;11.60;;
31660;SDS011;18267;52.234;7.444;2023-11-19T02:33:18;27.13;;;11.07;;
31660;SDS011;18267;52.234;7.444;2023-11-19T02:35:44;22.27;;;10.77;;
31660;SDS011;18267;52.234;7.444;2023-11-19T02:38:09;19.33;;;12.05;;
31660;SDS011;18267;52.234;7.444;2023-11-19T02:40:36;22.88;;;10.50;;
31660;SDS011;18267;52.234;7.444;2023-11-19T02:43:01;22.13;;;10.70;;
31660;SDS011;18267;52.234;7.444;2023-11-19T02:45:29;29.63;;;11.20;;
31660;SDS011;18267;52.234;7.444;2023-11-19T02:47:55;28.50;;;10.80;;
31660;SDS011;18267;52.234;7.444;2023-11-19T02:50:21;31.23;;;10.65;;
31660;SDS011;18267;52.234;7.444;2023-11-19T02:52:50;21.83;;;11.20;;
31660;SDS011;18267;52.234;7.444;2023-11-19T02:55:21;28.63;;;10.25;;
31660;SDS011;18267;52.234;7.444;2023-11-19T02:57:49;18.95;;;10.30;;
31660;SDS011;18267;52.234;7.444;2023-11-19T03:00:15;30.15;;;11.15;;
31660;SDS011;18267;52.234;7.444;2023-11-19T03:02:42;27.92;;;10.65;;
31660;SDS011;18267;52.234;7.444;2023-11-19T03:05:13;18.45;;;9.40;;
31660;SDS011;18267;52.234;7.444;2023-11-19T03:07:42;19.80;;;9.30;;
31660;SDS011;18267;52.234;7.444;2023-11-19T03:10:11;22.88;;;8.85;;
31660;SDS011;18267;52.234;7.444;2023-11-19T03:12:41;21.90;;;9.15;;
31660;SDS011;18267;52.234;7.444;2023-11-19T03:15:07;28.73;;;9.30;;
31660;SDS011;18267;52.234;7.444;2023-11-19T03:17:39;26.50;;;8.80;;
31660;SDS011;18267;52.234;7.444;2023-11-19T03:20:07;25.02;;;9.63;;
31660;SDS011;18267;52.234;7.444;2023-11-19T03:22:40;30.58;;;9.05;;
31660;SDS011;18267;52.234;7.444;2023-11-19T03:25:09;23.10;;;9.57;;
31660;SDS011;18267;52.234;7.444;2023-11-19T03:27:35;19.35;;;8.38;;
31660;SDS011;18267;52.234;7.444;2023-11-19T03:30:08;14.18;;;7.88;;
31660;SDS011;18267;52.234;7.444;2023-11-19T03:32:37;26.13;;;8.20;;
31660;SDS011;18267;52.234;7.444;2023-11-19T03:35:04;25.13;;;8.32;;
31660;SDS011;18267;52.234;7.444;2023-11-19T03:37:32;34.55;;;8.63;;
31660;SDS011;18267;52.234;7.444;2023-11-19T03:39:58;29.90;;;8.35;;
31660;SDS011;18267;52.234;7.444;2023-11-19T03:42:28;28.10;;;8.40;;
31660;SDS011;18267;52.234;7.444;2023-11-19T03:44:55;21.58;;;8.07;;
31660;SDS011;18267;52.234;7.444;2023-11-19T03:47:21;23.90;;;8.35;;
31660;SDS011;18267;52.234;7.444;2023-11-19T03:49:48;28.00;;;7.60;;
31660;SDS011;18267;52.234;7.444;2023-11-19T03:52:14;22.40;;;8.27;;
31660;SDS011;18267;52.234;7.444;2023-11-19T03:54:39;19.92;;;9.00;;
31660;SDS011;18267;52.234;7.444;2023-11-19T03:57:05;29.60;;;8.20;;
31660;SDS011;18267;52.234;7.444;2023-11-19T03:59:30;31.98;;;7.55;;
31660;SDS011;18267;52.234;7.444;2023-11-19T04:01:56;29.88;;;6.85;;
31660;SDS011;18267;52.234;7.444;2023-11-19T04:04:22;21.73;;;6.63;;
31660;SDS011;18267;52.234;7.444;2023-11-19T04:06:48;24.55;;;6.82;;
31660;SDS011;18267;52.234;7.444;2023-11-19T04:09:13;33.33;;;7.32;;
31660;SDS011;18267;52.234;7.444;2023-11-19T04:11:39;24.10;;;7.53;;
31660;SDS011;18267;52.234;7.444;2023-11-19T04:14:05;30.23;;;6.70;;
31660;SDS011;18267;52.234;7.444;2023-11-19T04:16:30;32.85;;;7.25;;
31660;SDS011;18267;52.234;7.444;2023-11-19T04:18:56;42.90;;;7.10;;
31660;SDS011;18267;52.234;7.444;2023-11-19T04:21:22;27.65;;;6.47;;
31660;SDS011;18267;52.234;7.444;2023-11-19T04:23:48;26.25;;;5.63;;
31660;SDS011;18267;52.234;7.444;2023-11-19T04:26:14;30.55;;;5.63;;
31660;SDS011;18267;52.234;7.444;2023-11-19T04:28:40;53.47;;;6.88;;
31660;SDS011;18267;52.234;7.444;2023-11-19T04:31:06;30.52;;;6.20;;
31660;SDS011;18267;52.234;7.444;2023-11-19T04:33:32;30.15;;;4.85;;
31660;SDS011;18267;52.234;7.444;2023-11-19T04:35:57;32.13;;;5.50;;
31660;SDS011;18267;52.234;7.444;2023-11-19T04:38:23;34.20;;;6.20;;
31660;SDS011;18267;52.234;7.444;2023-11-19T04:40:48;35.38;;;5.25;;
31660;SDS011;18267;52.234;7.444;2023-11-19T04:43:14;36.70;;;5.13;;
31660;SDS011;18267;52.234;7.444;2023-11-19T04:45:40;29.52;;;5.22;;
31660;SDS011;18267;52.234;7.444;2023-11-19T04:48:06;25.65;;;4.22;;
31660;SDS011;18267;52.234;7.444;2023-11-19T04:50:31;39.92;;;5.63;;
31660;SDS011;18267;52.234;7.444;2023-11-19T04:52:57;40.30;;;5.63;;
31660;SDS011;18267;52.234;7.444;2023-11-19T04:55:22;28.35;;;5.05;;
31660;SDS011;18267;52.234;7.444;2023-11-19T04:57:48;36.22;;;5.78;;
31660;SDS011;18267;52.234;7.444;2023-11-19T05:00:14;28.67;;;4.85;;
31660;SDS011;18267;52.234;7.444;2023-11-19T05:02:39;44.45;;;5.88;;
31660;SDS011;18267;52.234;7.444;2023-11-19T05:05:05;33.60;;;5.22;;
31660;SDS011;18267;52.234;7.444;2023-11-19T05:07:31;37.38;;;5.60;;
31660;SDS011;18267;52.234;7.444;2023-11-19T05:09:56;57.05;;;5.80;;
31660;SDS011;18267;52.234;7.444;2023-11-19T05:12:22;34.97;;;5.20;;
31660;SDS011;18267;52.234;7.444;2023-11-19T05:14:48;36.47;;;4.35;;
31660;SDS011;18267;52.234;7.444;2023-11-19T05:17:18;29.55;;;5.22;;
31660;SDS011;18267;52.234;7.444;2023-11-19T05:19:44;33.85;;;4.93;;
31660;SDS011;18267;52.234;7.444;2023-11-19T05:22:10;34.00;;;4.15;;
31660;SDS011;18267;52.234;7.444;2023-11-19T05:24:35;29.45;;;4.65;;
31660;SDS011;18267;52.234;7.444;2023-11-19T05:27:01;47.70;;;7.00;;
31660;SDS011;18267;52.234;7.444;2023-11-19T05:29:27;47.50;;;5.15;;
31660;SDS011;18267;52.234;7.444;2023-11-19T05:31:53;39.50;;;4.72;;
31660;SDS011;18267;52.234;7.444;2023-11-19T05:34:20;31.77;;;5.32;;
31660;SDS011;18267;52.234;7.444;2023-11-19T05:36:46;39.90;;;5.90;;
31660;SDS011;18267;52.234;7.444;2023-11-19T05:39:12;32.88;;;6.13;;
31660;SDS011;18267;52.234;7.444;2023-11-19T05:41:38;44.08;;;4.70;;
31660;SDS011;18267;52.234;7.444;2023-11-19T05:44:04;35.83;;;4.28;;
31660;SDS011;18267;52.234;7.444;2023-11-19T05:46:29;49.53;;;4.93;;
31660;SDS011;18267;52.234;7.444;2023-11-19T05:48:55;46.20;;;5.63;;
31660;SDS011;18267;52.234;7.444;2023-11-19T05:51:20;39.60;;;5.22;;
31660;SDS011;18267;52.234;7.444;2023-11-19T05:53:46;37.47;;;5.38;;
31660;SDS011;18267;52.234;7.444;2023-11-19T05:56:11;53.45;;;5.35;;
31660;SDS011;18267;52.234;7.444;2023-11-19T05:58:37;53.55;;;4.45;;
31660;SDS011;18267;52.234;7.444;2023-11-19T06:01:04;46.47;;;5.30;;
31660;SDS011;18267;52.234;7.444;2023-11-19T06:03:32;49.88;;;5.45;;
31660;SDS011;18267;52.234;7.444;2023-11-19T06:05:58;41.30;;;5.50;;
31660;SDS011;18267;52.234;7.444;2023-11-19T06:08:23;36.25;;;4.75;;
31660;SDS011;18267;52.234;7.444;2023-11-19T06:10:51;41.47;;;5.00;;
31660;SDS011;18267;52.234;7.444;2023-11-19T06:13:17;43.25;;;5.35;;
31660;SDS011;18267;52.234;7.444;2023-11-19T06:15:43;45.47;;;4.50;;
31660;SDS011;18267;52.234;7.444;2023-11-19T06:18:09;35.08;;;4.28;;
31660;SDS011;18267;52.234;7.444;2023-11-19T06:20:36;34.10;;;4.45;;
31660;SDS011;18267;52.234;7.444;2023-11-19T06:23:02;38.65;;;4.65;;
31660;SDS011;18267;52.234;7.444;2023-11-19T06:25:28;46.03;;;5.75;;
31660;SDS011;18267;52.234;7.444;2023-11-19T06:27:54;45.17;;;4.63;;
31660;SDS011;18267;52.234;7.444;2023-11-19T06:30:19;34.47;;;3.88;;
31660;SDS011;18267;52.234;7.444;2023-11-19T06:32:48;38.47;;;4.60;;
31660;SDS011;18267;52.234;7.444;2023-11-19T06:35:13;40.38;;;4.90;;
31660;SDS011;18267;52.234;7.444;2023-11-19T06:37:39;43.05;;;5.25;;
31660;SDS011;18267;52.234;7.444;2023-11-19T06:40:06;46.80;;;5.63;;
31660;SDS011;18267;52.234;7.444;2023-11-19T06:42:34;37.00;;;3.92;;
31660;SDS011;18267;52.234;7.444;2023-11-19T06:45:00;34.67;;;4.15;;
31660;SDS011;18267;52.234;7.444;2023-11-19T06:47:27;42.38;;;5.13;;
31660;SDS011;18267;52.234;7.444;2023-11-19T06:49:53;35.60;;;4.22;;
31660;SDS011;18267;52.234;7.444;2023-11-19T06:52:19;33.65;;;4.18;;
31660;SDS011;18267;52.234;7.444;2023-11-19T06:54:45;45.08;;;5.05;;
31660;SDS011;18267;52.234;7.444;2023-11-19T06:57:11;43.42;;;5.20;;
31660;SDS011;18267;52.234;7.444;2023-11-19T06:59:37;32.47;;;4.15;;
31660;SDS011;18267;52.234;7.444;2023-11-19T07:02:03;27.63;;;3.78;;
31660;SDS011;18267;52.234;7.444;2023-11-19T07:04:32;30.65;;;4.13;;
31660;SDS011;18267;52.234;7.444;2023-11-19T07:07:00;31.02;;;4.93;;
31660;SDS011;18267;52.234;7.444;2023-11-19T07:09:26;44.47;;;4.70;;
31660;SDS011;18267;52.234;7.444;2023-11-19T07:11:52;36.13;;;4.93;;
31660;SDS011;18267;52.234;7.444;2023-11-19T07:14:18;38.60;;;4.38;;
31660;SDS011;18267;52.234;7.444;2023-11-19T07:16:44;54.42;;;4.70;;
31660;SDS011;18267;52.234;7.444;2023-11-19T07:19:11;32.30;;;3.85;;
31660;SDS011;18267;52.234;7.444;2023-11-19T07:21:37;36.85;;;4.68;;
31660;SDS011;18267;52.234;7.444;2023-11-19T07:24:09;38.08;;;4.70;;
31660;SDS011;18267;52.234;7.444;2023-11-19T07:26:35;38.08;;;3.95;;
31660;SDS011;18267;52.234;7.444;2023-11-19T07:29:02;37.97;;;4.38;;
31660;SDS011;18267;52.234;7.444;2023-11-19T07:31:28;50.05;;;4.30;;
31660;SDS011;18267;52.234;7.444;2023-11-19T07:33:53;36.63;;;3.72;;
31660;SDS011;18267;52.234;7.444;2023-11-19T07:36:19;31.27;;;3.50;;
31660;SDS011;18267;52.234;7.444;2023-11-19T07:38:45;40.63;;;3.90;;
31660;SDS011;18267;52.234;7.444;2023-11-19T07:41:12;36.42;;;3.67;;
31660;SDS011;18267;52.234;7.444;2023-11-19T07:43:44;31.40;;;3.45;;
31660;SDS011;18267;52.234;7.444;2023-11-19T07:46:12;27.02;;;3.58;;
31660;SDS011;18267;52.234;7.444;2023-11-19T07:48:39;38.70;;;3.53;;
31660;SDS011;18267;52.234;7.444;2023-11-19T07:51:05;39.40;;;3.55;;
31660;SDS011;18267;52.234;7.444;2023-11-19T07:53:31;45.42;;;3.97;;
31660;SDS011;18267;52.234;7.444;2023-11-19T07:55:57;35.63;;;4.55;;
31660;SDS011;18267;52.234;7.444;2023-11-19T07:58:24;39.00;;;4.43;;
31660;SDS011;18267;52.234;7.444;2023-11-19T08:00:50;42.47;;;4.85;;
31660;SDS011;18267;52.234;7.444;2023-11-19T08:03:17;32.17;;;3.28;;
31660;SDS011;18267;52.234;7.444;2023-11-19T08:05:43;37.58;;;3.97;;
31660;SDS011;18267;52.234;7.444;2023-11-19T08:08:09;34.63;;;4.00;;
31660;SDS011;18267;52.234;7.444;2023-11-19T08:10:35;51.15;;;4.47;;
31660;SDS011;18267;52.234;7.444;2023-11-19T08:13:01;31.73;;;3.72;;
31660;SDS011;18267;52.234;7.444;2023-11-19T08:15:26;25.27;;;4.45;;
31660;SDS011;18267;52.234;7.444;2023-11-19T08:17:52;31.33;;;4.05;;
31660;SDS011;18267;52.234;7.444;2023-11-19T08:20:18;38.58;;;3.65;;
31660;SDS011;18267;52.234;7.444;2023-11-19T08:22:44;37.78;;;3.83;;
31660;SDS011;18267;52.234;7.444;2023-11-19T08:25:09;38.38;;;4.57;;
31660;SDS011;18267;52.234;7.444;2023-11-19T08:27:35;50.97;;;4.32;;
31660;SDS011;18267;52.234;7.444;2023-11-19T08:30:00;33.45;;;3.80;;
31660;SDS011;18267;52.234;7.444;2023-11-19T08:32:26;34.88;;;3.85;;
31660;SDS011;18267;52.234;7.444;2023-11-19T08:34:52;35.58;;;3.75;;
31660;SDS011;18267;52.234;7.444;2023-11-19T08:37:18;40.47;;;5.03;;
31660;SDS011;18267;52.234;7.444;2023-11-19T08:39:48;34.10;;;4.18;;
31660;SDS011;18267;52.234;7.444;2023-11-19T08:42:15;36.50;;;4.50;;
31660;SDS011;18267;52.234;7.444;2023-11-19T08:44:41;28.48;;;3.15;;
31660;SDS011;18267;52.234;7.444;2023-11-19T08:47:09;32.03;;;3.65;;
31660;SDS011;18267;52.234;7.444;2023-11-19T08:49:36;28.52;;;3.10;;
31660;SDS011;18267;52.234;7.444;2023-11-19T08:52:01;43.55;;;5.00;;
31660;SDS011;18267;52.234;7.444;2023-11-19T08:54:27;35.72;;;4.85;;
31660;SDS011;18267;52.234;7.444;2023-11-19T08:56:52;32.67;;;3.88;;
31660;SDS011;18267;52.234;7.444;2023-11-19T08:59:18;28.55;;;4.15;;
31660;SDS011;18267;52.234;7.444;2023-11-19T09:01:44;40.65;;;4.35;;
31660;SDS011;18267;52.234;7.444;2023-11-19T09:04:10;36.38;;;4.80;;
31660;SDS011;18267;52.234;7.444;2023-11-19T09:06:36;36.92;;;3.75;;
31660;SDS011;18267;52.234;7.444;2023-11-19T09:09:01;32.28;;;3.75;;
31660;SDS011;18267;52.234;7.444;2023-11-19T09:11:31;34.03;;;3.88;;
31660;SDS011;18267;52.234;7.444;2023-11-19T09:13:57;27.92;;;4.18;;
31660;SDS011;18267;52.234;7.444;2023-11-19T09:16:22;31.15;;;3.45;;
31660;SDS011;18267;52.234;7.444;2023-11-19T09:18:49;30.50;;;2.92;;
31660;SDS011;18267;52.234;7.444;2023-11-19T09:21:14;31.98;;;3.38;;
31660;SDS011;18267;52.234;7.444;2023-11-19T09:23:40;32.15;;;4.60;;
31660;SDS011;18267;52.234;7.444;2023-11-19T09:26:06;41.78;;;4.25;;
31660;SDS011;18267;52.234;7.444;2023-11-19T09:28:35;34.13;;;4.05;;
31660;SDS011;18267;52.234;7.444;2023-11-19T09:31:00;27.27;;;3.50;;
31660;SDS011;18267;52.234;7.444;2023-11-19T09:33:29;38.42;;;4.13;;
31660;SDS011;18267;52.234;7.444;2023-11-19T09:35:55;30.00;;;4.25;;
31660;SDS011;18267;52.234;7.444;2023-11-19T09:38:20;30.52;;;4.13;;
31660;SDS011;18267;52.234;7.444;2023-11-19T09:40:46;31.92;;;3.72;;
31660;SDS011;18267;52.234;7.444;2023-11-19T09:43:12;29.90;;;3.90;;
31660;SDS011;18267;52.234;7.444;2023-11-19T09:45:49;33.35;;;4.43;;
31660;SDS011;18267;52.234;7.444;2023-11-19T09:48:18;34.53;;;3.67;;
31660;SDS011;18267;52.234;7.444;2023-11-19T09:50:47;38.17;;;3.85;;
31660;SDS011;18267;52.234;7.444;2023-11-19T09:53:14;33.08;;;4.65;;
31660;SDS011;18267;52.234;7.444;2023-11-19T09:55:43;38.28;;;3.72;;
31660;SDS011;18267;52.234;7.444;2023-11-19T09:58:09;37.13;;;3.55;;
31660;SDS011;18267;52.234;7.444;2023-11-19T10:00:39;37.30;;;3.42;;
31660;SDS011;18267;52.234;7.444;2023-11-19T10:03:07;37.35;;;3.28;;
31660;SDS011;18267;52.234;7.444;2023-11-19T10:05:33;36.63;;;3.15;;
31660;SDS011;18267;52.234;7.444;2023-11-19T10:07:59;32.47;;;4.05;;
31660;SDS011;18267;52.234;7.444;2023-11-19T10:10:27;28.33;;;3.30;;
31660;SDS011;18267;52.234;7.444;2023-11-19T10:12:53;33.05;;;4.03;;
31660;SDS011;18267;52.234;7.444;2023-11-19T10:15:20;29.95;;;4.25;;
31660;SDS011;18267;52.234;7.444;2023-11-19T10:17:51;26.17;;;3.92;;
31660;SDS011;18267;52.234;7.444;2023-11-19T10:20:20;17.73;;;3.58;;
31660;SDS011;18267;52.234;7.444;2023-11-19T10:22:46;25.67;;;3.92;;
31660;SDS011;18267;52.234;7.444;2023-11-19T10:25:21;28.90;;;3.90;;
31660;SDS011;18267;52.234;7.444;2023-11-19T10:27:51;35.65;;;3.33;;
31660;SDS011;18267;52.234;7.444;2023-11-19T10:30:17;43.60;;;4.00;;
31660;SDS011;18267;52.234;7.444;2023-11-19T10:35:36;25.38;;;3.70;;
31660;SDS011;18267;52.234;7.444;2023-11-19T10:38:22;39.22;;;4.45;;
31660;SDS011;18267;52.234;7.444;2023-11-19T10:40:50;32.55;;;3.67;;
31660;SDS011;18267;52.234;7.444;2023-11-19T10:43:16;24.08;;;3.97;;
31660;SDS011;18267;52.234;7.444;2023-11-19T10:45:42;22.58;;;3.70;;
31660;SDS011;18267;52.234;7.444;2023-11-19T10:48:08;35.95;;;3.75;;
31660;SDS011;18267;52.234;7.444;2023-11-19T10:50:35;36.55;;;3.95;;
31660;SDS011;18267;52.234;7.444;2023-11-19T10:53:02;34.55;;;4.13;;
31660;SDS011;18267;52.234;7.444;2023-11-19T10:55:33;31.10;;;4.18;;
31660;SDS011;18267;52.234;7.444;2023-11-19T10:58:07;26.52;;;3.05;;
31660;SDS011;18267;52.234;7.444;2023-11-19T11:03:29;38.60;;;4.15;;
31660;SDS011;18267;52.234;7.444;2023-11-19T11:06:04;21.92;;;3.88;;
31660;SDS011;18267;52.234;7.444;2023-11-19T11:08:30;30.92;;;3.70;;
31660;SDS011;18267;52.234;7.444;2023-11-19T11:10:56;42.95;;;4.63;;
31660;SDS011;18267;52.234;7.444;2023-11-19T11:13:27;37.33;;;3.92;;
31660;SDS011;18267;52.234;7.444;2023-11-19T11:15:54;29.60;;;3.28;;
31660;SDS011;18267;52.234;7.444;2023-11-19T11:18:24;34.35;;;4.05;;
31660;SDS011;18267;52.234;7.444;2023-11-19T11:20:51;25.08;;;3.60;;
31660;SDS011;18267;52.234;7.444;2023-11-19T11:29:05;29.27;;;3.92;;
31660;SDS011;18267;52.234;7.444;2023-11-19T11:37:26;26.75;;;4.28;;
31660;SDS011;18267;52.234;7.444;2023-11-19T11:39:57;32.75;;;3.88;;
31660;SDS011;18267;52.234;7.444;2023-11-19T11:42:30;25.13;;;3.70;;
31660;SDS011;18267;52.234;7.444;2023-11-19T11:45:00;28.40;;;3.35;;
31660;SDS011;18267;52.234;7.444;2023-11-19T11:50:09;25.73;;;4.07;;
31660;SDS011;18267;52.234;7.444;2023-11-19T11:55:27;35.67;;;3.67;;
31660;SDS011;18267;52.234;7.444;2023-11-19T11:57:59;24.92;;;3.72;;
31660;SDS011;18267;52.234;7.444;2023-11-19T12:00:32;37.67;;;3.72;;
31660;SDS011;18267;52.234;7.444;2023-11-19T12:03:02;20.08;;;3.03;;
31660;SDS011;18267;52.234;7.444;2023-11-19T12:05:30;35.17;;;4.47;;
31660;SDS011;18267;52.234;7.444;2023-11-19T12:10:26;29.90;;;4.43;;
31660;SDS011;18267;52.234;7.444;2023-11-19T12:12:59;28.65;;;3.65;;
31660;SDS011;18267;52.234;7.444;2023-11-19T12:15:26;30.77;;;3.22;;
31660;SDS011;18267;52.234;7.444;2023-11-19T12:17:52;32.47;;;5.55;;
31660;SDS011;18267;52.234;7.444;2023-11-19T12:20:22;28.48;;;3.20;;
31660;SDS011;18267;52.234;7.444;2023-11-19T12:22:51;21.05;;;3.13;;
31660;SDS011;18267;52.234;7.444;2023-11-19T12:25:18;27.90;;;3.47;;
31660;SDS011;18267;52.234;7.444;2023-11-19T12:27:51;31.67;;;3.28;;
31660;SDS011;18267;52.234;7.444;2023-11-19T12:30:21;29.23;;;3.38;;
31660;SDS011;18267;52.234;7.444;2023-11-19T12:32:48;29.50;;;4.03;;
31660;SDS011;18267;52.234;7.444;2023-11-19T12:35:14;39.88;;;3.60;;
31660;SDS011;18267;52.234;7.444;2023-11-19T12:37:43;24.92;;;3.13;;
31660;SDS011;18267;52.234;7.444;2023-11-19T12:40:14;28.13;;;3.22;;
31660;SDS011;18267;52.234;7.444;2023-11-19T12:42:44;26.15;;;4.35;;
31660;SDS011;18267;52.234;7.444;2023-11-19T12:45:13;28.48;;;4.15;;
31660;SDS011;18267;52.234;7.444;2023-11-19T12:47:41;38.17;;;3.47;;
31660;SDS011;18267;52.234;7.444;2023-11-19T12:50:07;23.17;;;2.60;;
31660;SDS011;18267;52.234;7.444;2023-11-19T12:52:34;30.30;;;3.75;;
31660;SDS011;18267;52.234;7.444;2023-11-19T12:55:01;23.50;;;3.65;;
31660;SDS011;18267;52.234;7.444;2023-11-19T12:57:37;30.40;;;4.47;;
31660;SDS011;18267;52.234;7.444;2023-11-19T13:00:05;19.65;;;3.10;;
31660;SDS011;18267;52.234;7.444;2023-11-19T13:02:48;28.98;;;3.17;;
31660;SDS011;18267;52.234;7.444;2023-11-19T13:05:27;29.17;;;3.47;;
31660;SDS011;18267;52.234;7.444;2023-11-19T13:10:29;26.23;;;2.92;;
31660;SDS011;18267;52.234;7.444;2023-11-19T13:13:06;22.17;;;3.58;;
31660;SDS011;18267;52.234;7.444;2023-11-19T13:15:35;29.35;;;4.30;;
31660;SDS011;18267;52.234;7.444;2023-11-19T13:18:01;22.83;;;3.55;;
31660;SDS011;18267;52.234;7.444;2023-11-19T13:20:27;34.83;;;3.83;;
31660;SDS011;18267;52.234;7.444;2023-11-19T13:22:57;31.02;;;3.65;;
31660;SDS011;18267;52.234;7.444;2023-11-19T13:25:23;16.35;;;3.17;;
31660;SDS011;18267;52.234;7.444;2023-11-19T13:27:49;17.27;;;3.00;;
31660;SDS011;18267;52.234;7.444;2023-11-19T13:30:15;20.15;;;3.28;;
31660;SDS011;18267;52.234;7.444;2023-11-19T13:32:41;26.38;;;4.10;;
31660;SDS011;18267;52.234;7.444;2023-11-19T13:35:08;15.00;;;3.38;;
31660;SDS011;18267;52.234;7.444;2023-11-19T13:37:34;27.08;;;3.80;;
31660;SDS011;18267;52.234;7.444;2023-11-19T13:40:00;31.67;;;3.65;;
31660;SDS011;18267;52.234;7.444;2023-11-19T13:42:26;25.63;;;3.63;;
31660;SDS011;18267;52.234;7.444;2023-11-19T13:44:52;28.88;;;3.55;;
31660;SDS011;18267;52.234;7.444;2023-11-19T13:47:17;25.02;;;3.53;;
31660;SDS011;18267;52.234;7.444;2023-11-19T13:49:44;26.67;;;3.45;;
31660;SDS011;18267;52.234;7.444;2023-11-19T13:52:10;22.20;;;3.65;;
31660;SDS011;18267;52.234;7.444;2023-11-19T13:54:36;14.40;;;2.25;;
31660;SDS011;18267;52.234;7.444;2023-11-19T13:57:02;15.85;;;2.40;;
31660;SDS011;18267;52.234;7.444;2023-11-19T13:59:29;23.50;;;3.33;;
31660;SDS011;18267;52.234;7.444;2023-11-19T14:01:57;33.63;;;2.92;;
31660;SDS011;18267;52.234;7.444;2023-11-19T14:04:22;26.92;;;3.80;;
31660;SDS011;18267;52.234;7.444;2023-11-19T14:06:48;38.10;;;4.18;;
31660;SDS011;18267;52.234;7.444;2023-11-19T14:09:14;17.20;;;1.95;;
31660;SDS011;18267;52.234;7.444;2023-11-19T14:11:40;24.58;;;2.88;;
31660;SDS011;18267;52.234;7.444;2023-11-19T14:14:05;28.65;;;3.40;;
31660;SDS011;18267;52.234;7.444;2023-11-19T14:16:31;18.35;;;2.85;;
31660;SDS011;18267;52.234;7.444;2023-11-19T14:18:57;25.50;;;3.30;;
31660;SDS011;18267;52.234;7.444;2023-11-19T14:21:23;23.55;;;2.88;;
31660;SDS011;18267;52.234;7.444;2023-11-19T14:23:50;25.20;;;2.78;;
31660;SDS011;18267;52.234;7.444;2023-11-19T14:26:15;26.67;;;3.78;;
31660;SDS011;18267;52.234;7.444;2023-11-19T14:28:41;23.08;;;3.22;;
31660;SDS011;18267;52.234;7.444;2023-11-19T14:31:07;16.77;;;2.30;;
31660;SDS011;18267;52.234;7.444;2023-11-19T14:33:32;34.13;;;3.45;;
31660;SDS011;18267;52.234;7.444;2023-11-19T14:36:00;30.23;;;3.47;;
31660;SDS011;18267;52.234;7.444;2023-11-19T14:38:26;20.52;;;3.38;;
31660;SDS011;18267;52.234;7.444;2023-11-19T14:40:51;14.63;;;2.00;;
31660;SDS011;18267;52.234;7.444;2023-11-19T14:43:17;20.38;;;3.00;;
31660;SDS011;18267;52.234;7.444;2023-11-19T14:45:42;12.88;;;2.15;;
31660;SDS011;18267;52.234;7.444;2023-11-19T14:48:08;26.63;;;2.67;;
31660;SDS011;18267;52.234;7.444;2023-11-19T14:50:35;15.40;;;2.10;;
31660;SDS011;18267;52.234;7.444;2023-11-19T14:53:00;23.65;;;3.10;;
31660;SDS011;18267;52.234;7.444;2023-11-19T14:55:27;18.38;;;2.80;;
31660;SDS011;18267;52.234;7.444;2023-11-19T14:57:52;16.27;;;2.53;;
31660;SDS011;18267;52.234;7.444;2023-11-19T15:00:18;17.40;;;2.28;;